createdAt,value
2023-01-18T00:02:55.249Z,-1.53
2023-01-18T00:06:01.596Z,-1.47
2023-01-18T00:09:04.770Z,-1.42
2023-01-18T00:12:08.345Z,-1.36
2023-01-18T00:15:15.660Z,-1.38
2023-01-18T00:18:21.679Z,-1.45
2023-01-18T00:21:26.860Z,-1.47
2023-01-18T00:24:30.774Z,-1.38
2023-01-18T00:27:33.915Z,-1.48
2023-01-18T00:30:38.342Z,-1.48
2023-01-18T00:33:43.872Z,-1.47
2023-01-18T00:36:49.440Z,-1.44
2023-01-18T00:39:52.406Z,-1.47
2023-01-18T00:43:13.194Z,-1.45
2023-01-18T00:46:20.208Z,-1.47
2023-01-18T00:49:24.024Z,-1.51
2023-01-18T00:52:27.186Z,-1.50
2023-01-18T00:55:30.264Z,-1.54
2023-01-18T00:58:33.369Z,-1.56
2023-01-18T01:01:37.896Z,-1.53
2023-01-18T01:04:58.346Z,-1.49
2023-01-18T01:08:01.381Z,-1.48
2023-01-18T01:11:07.875Z,-1.47
2023-01-18T01:14:28.935Z,-1.48
2023-01-18T01:17:54.160Z,-1.48
2023-01-18T01:21:14.588Z,-1.52
2023-01-18T01:24:35.648Z,-1.51
2023-01-18T01:27:38.736Z,-1.56
2023-01-18T01:30:41.819Z,-1.56
2023-01-18T01:33:49.029Z,-1.48
2023-01-18T01:36:52.168Z,-1.39
2023-01-18T01:39:55.161Z,-1.33
2023-01-18T01:42:58.613Z,-1.35
2023-01-18T01:46:02.885Z,-1.39
2023-01-18T01:49:13.103Z,-1.35
2023-01-18T01:52:21.627Z,-1.35
2023-01-18T01:55:28.874Z,-1.29
2023-01-18T01:58:33.484Z,-1.26
2023-01-18T02:01:37.492Z,-1.22
2023-01-18T02:04:46.532Z,-1.23
2023-01-18T02:07:50.151Z,-1.28
2023-01-18T02:10:54.044Z,-1.28
2023-01-18T02:14:01.254Z,-1.25
2023-01-18T02:17:17.570Z,-1.27
2023-01-18T02:20:51.839Z,-1.25
2023-01-18T02:24:41.851Z,-1.23
2023-01-18T02:27:52.375Z,-1.21
2023-01-18T02:31:04.116Z,-1.22
2023-01-18T02:34:16.520Z,-1.25
2023-01-18T02:37:27.236Z,-1.26
2023-01-18T02:40:57.266Z,-1.21
2023-01-18T02:44:18.346Z,-1.22
2023-01-18T02:47:23.997Z,-1.30
2023-01-18T02:50:28.889Z,-1.29
2023-01-18T02:53:33.009Z,-1.34
2023-01-18T02:56:40.594Z,-1.28
2023-01-18T02:59:48.703Z,-1.24
2023-01-18T03:02:55.857Z,-1.23
2023-01-18T03:06:02.187Z,-1.24
2023-01-18T03:09:05.609Z,-1.29
2023-01-18T03:12:20.670Z,-1.30
2023-01-18T03:15:30.800Z,-1.29
2023-01-18T03:19:00.366Z,-1.28
2023-01-18T03:22:04.274Z,-1.29
2023-01-18T03:25:10.269Z,-1.31
2023-01-18T03:28:36.198Z,-1.32
2023-01-18T03:32:02.991Z,-1.31
2023-01-18T03:35:14.299Z,-1.29
2023-01-18T03:38:18.851Z,-1.33
2023-01-18T03:41:26.410Z,-1.32
2023-01-18T03:44:36.783Z,-1.28
2023-01-18T03:47:40.719Z,-1.30
2023-01-18T03:50:51.089Z,-1.28
2023-01-18T03:54:03.179Z,-1.30
2023-01-18T03:57:13.765Z,-1.27
2023-01-18T04:00:17.641Z,-1.25
2023-01-18T04:03:20.831Z,-1.23
2023-01-18T04:06:25.774Z,-1.13
2023-01-18T04:09:28.870Z,-1.11
2023-01-18T04:12:34.296Z,-1.07
2023-01-18T04:15:37.294Z,-1.02
2023-01-18T04:18:40.293Z,-1.06
2023-01-18T04:21:45.032Z,-1.07
2023-01-18T04:24:48.084Z,-1.04
2023-01-18T04:27:51.128Z,-1.06
2023-01-18T04:30:55.151Z,-1.04
2023-01-18T04:33:58.296Z,-1.04
2023-01-18T04:37:02.653Z,-1.08
2023-01-18T04:40:06.805Z,-1.04
2023-01-18T04:43:10.208Z,-1.04
2023-01-18T04:46:13.253Z,-1.04
2023-01-18T04:49:17.448Z,-1.04
2023-01-18T04:52:21.882Z,-0.99
2023-01-18T04:55:24.886Z,-1.01
2023-01-18T04:58:27.863Z,-0.97
2023-01-18T05:01:31.052Z,-0.99
2023-01-18T05:04:34.183Z,-0.97
2023-01-18T05:07:38.550Z,-0.96
2023-01-18T05:10:41.593Z,-0.92
2023-01-18T05:13:48.192Z,-0.91
2023-01-18T05:16:51.307Z,-0.90
2023-01-18T05:19:54.949Z,-0.89
2023-01-18T05:22:59.916Z,-0.88
2023-01-18T05:26:04.951Z,-0.80
2023-01-18T05:29:08.007Z,-0.76
2023-01-18T05:32:11.809Z,-0.69
2023-01-18T05:35:14.827Z,-0.61
2023-01-18T05:38:20.388Z,-0.59
2023-01-18T05:41:23.470Z,-0.55
2023-01-18T05:44:26.607Z,-0.50
2023-01-18T05:47:29.659Z,-0.45
2023-01-18T05:50:32.655Z,-0.39
2023-01-18T05:53:50.035Z,-0.32
2023-01-18T05:56:53.110Z,-0.26
2023-01-18T05:59:56.156Z,-0.19
2023-01-18T06:02:59.678Z,-0.17
2023-01-18T06:06:02.953Z,-0.15
2023-01-18T06:09:08.000Z,-0.11
2023-01-18T06:12:11.355Z,-0.13
2023-01-18T06:15:15.598Z,-0.07
2023-01-18T06:18:18.812Z,-0.06
2023-01-18T06:21:24.683Z,-0.01
2023-01-18T06:24:31.845Z,0.03
2023-01-18T06:27:35.134Z,0.01
2023-01-18T06:30:38.250Z,0.06
2023-01-18T06:33:41.374Z,0.08
2023-01-18T06:36:45.157Z,0.07
2023-01-18T06:39:49.562Z,0.10
2023-01-18T06:42:52.845Z,0.05
2023-01-18T06:45:57.337Z,0.06
2023-01-18T06:49:00.650Z,0.11
2023-01-18T06:52:03.902Z,0.07
2023-01-18T06:55:09.164Z,0.10
2023-01-18T06:58:12.444Z,0.07
2023-01-18T07:01:15.613Z,0.04
2023-01-18T07:04:18.698Z,0.07
2023-01-18T07:07:22.472Z,0.09
2023-01-18T07:10:48.554Z,0.11
2023-01-18T07:14:11.509Z,0.14
2023-01-18T07:17:16.236Z,0.16
2023-01-18T07:20:20.471Z,0.18
2023-01-18T07:23:23.566Z,0.22
2023-01-18T07:26:28.018Z,0.25
2023-01-18T07:29:31.237Z,0.26
2023-01-18T07:32:34.253Z,0.28
2023-01-18T07:35:37.344Z,0.31
2023-01-18T07:38:40.628Z,0.34
2023-01-18T07:41:45.341Z,0.33
2023-01-18T07:44:48.654Z,0.36
2023-01-18T07:47:53.376Z,0.39
2023-01-18T07:50:58.803Z,0.39
2023-01-18T07:54:02.142Z,0.42
2023-01-18T07:57:06.917Z,0.41
2023-01-18T08:00:14.703Z,0.42
2023-01-18T08:03:19.743Z,0.44
2023-01-18T08:06:25.651Z,0.49
2023-01-18T08:09:29.090Z,0.49
2023-01-18T08:12:33.476Z,0.56
2023-01-18T08:15:37.160Z,0.61
2023-01-18T08:18:40.894Z,0.62
2023-01-18T08:21:43.991Z,0.66
2023-01-18T08:24:47.064Z,0.68
2023-01-18T08:27:51.546Z,0.70
2023-01-18T08:30:54.920Z,0.77
2023-01-18T08:34:00.472Z,0.73
2023-01-18T08:37:04.455Z,0.78
2023-01-18T08:40:09.567Z,0.78
2023-01-18T08:43:32.873Z,0.83
2023-01-18T08:46:54.240Z,0.86
2023-01-18T08:50:15.733Z,0.88
2023-01-18T08:53:37.389Z,0.94
2023-01-18T08:56:59.402Z,1.00
2023-01-18T09:00:26.776Z,1.04
2023-01-18T09:03:50.435Z,1.11
2023-01-18T09:07:12.218Z,1.11
2023-01-18T09:10:37.447Z,1.18
2023-01-18T09:14:01.665Z,1.25
2023-01-18T09:17:24.997Z,1.26
2023-01-18T09:20:46.494Z,1.32
2023-01-18T09:24:09.540Z,1.36
2023-01-18T09:27:31.277Z,1.46
2023-01-18T09:30:53.360Z,1.51
2023-01-18T09:34:17.715Z,1.50
2023-01-18T09:37:21.558Z,1.55
2023-01-18T09:40:35.803Z,1.68
2023-01-18T09:43:45.645Z,1.77
2023-01-18T09:46:54.312Z,1.81
2023-01-18T09:50:02.344Z,1.89
2023-01-18T09:53:19.945Z,1.97
2023-01-18T09:56:28.710Z,1.95
2023-01-18T09:59:38.258Z,1.96
2023-01-18T10:02:43.083Z,2.05
2023-01-18T10:06:08.265Z,2.06
2023-01-18T10:09:17.569Z,2.15
2023-01-18T10:12:28.060Z,2.15
2023-01-18T10:15:36.479Z,2.15
2023-01-18T10:18:45.627Z,2.17
2023-01-18T10:21:56.332Z,2.22
2023-01-18T10:25:04.976Z,2.31
2023-01-18T10:28:25.293Z,2.32
2023-01-18T10:31:44.506Z,2.34
2023-01-18T10:34:53.656Z,2.41
2023-01-18T10:38:02.362Z,2.39
2023-01-18T10:41:06.159Z,2.31
2023-01-18T10:44:10.238Z,2.34
2023-01-18T10:47:18.008Z,2.31
2023-01-18T10:50:25.009Z,2.40
2023-01-18T10:53:36.481Z,2.42
2023-01-18T10:56:40.094Z,2.38
2023-01-18T10:59:44.018Z,2.46
2023-01-18T11:02:51.520Z,2.42
2023-01-18T11:06:06.202Z,2.42
2023-01-18T11:09:42.032Z,2.42
2023-01-18T11:12:48.531Z,2.39
2023-01-18T11:16:10.583Z,2.28
2023-01-18T11:19:19.956Z,2.28
2023-01-18T11:22:25.067Z,2.32
2023-01-18T11:25:38.740Z,2.30
2023-01-18T11:28:51.329Z,2.34
2023-01-18T11:31:56.183Z,2.41
2023-01-18T11:35:00.992Z,2.33
2023-01-18T11:38:06.743Z,2.36
2023-01-18T11:41:21.302Z,2.42
2023-01-18T11:44:28.619Z,2.40
2023-01-18T11:47:40.772Z,2.42
2023-01-18T11:50:48.383Z,2.49
2023-01-18T11:53:59.655Z,2.46
2023-01-18T11:57:05.033Z,2.46
2023-01-18T12:00:15.936Z,2.52
2023-01-18T12:03:47.598Z,2.59
2023-01-18T12:07:03.247Z,2.52
2023-01-18T12:10:13.189Z,2.48
2023-01-18T12:13:36.128Z,2.48
2023-01-18T12:17:03.001Z,2.50
2023-01-18T12:20:27.052Z,2.56
2023-01-18T12:23:57.411Z,2.46
2023-01-18T12:27:04.877Z,2.55
2023-01-18T12:30:28.948Z,2.49
2023-01-18T12:33:47.891Z,2.55
2023-01-18T12:37:09.321Z,2.39
2023-01-18T12:40:38.246Z,2.42
2023-01-18T12:43:52.236Z,2.41
2023-01-18T12:47:09.281Z,2.44
2023-01-18T12:50:24.144Z,2.47
2023-01-18T12:53:40.347Z,2.50
2023-01-18T12:56:47.138Z,2.49
2023-01-18T12:59:56.086Z,2.45
2023-01-18T13:03:00.652Z,2.49
2023-01-18T13:06:04.284Z,2.53
2023-01-18T13:09:13.496Z,2.57
2023-01-18T13:12:17.515Z,2.58
2023-01-18T13:15:32.748Z,2.49
2023-01-18T13:18:44.461Z,2.42
2023-01-18T13:22:07.529Z,2.41
2023-01-18T13:25:33.617Z,2.42
2023-01-18T13:28:38.245Z,2.38
2023-01-18T13:31:41.397Z,2.37
2023-01-18T13:34:48.970Z,2.37
2023-01-18T13:37:56.226Z,2.30
2023-01-18T13:41:05.260Z,2.27
2023-01-18T13:44:32.288Z,2.33
2023-01-18T13:48:00.979Z,2.28
2023-01-18T13:51:07.338Z,2.28
2023-01-18T13:54:17.662Z,2.26
2023-01-18T13:57:23.300Z,2.36
2023-01-18T14:00:27.870Z,2.43
2023-01-18T14:03:35.303Z,2.34
2023-01-18T14:06:44.845Z,2.28
2023-01-18T14:09:50.171Z,2.36
2023-01-18T14:12:55.974Z,2.42
2023-01-18T14:16:00.373Z,2.40
2023-01-18T14:19:15.735Z,2.20
2023-01-18T14:22:37.368Z,2.11
2023-01-18T14:25:58.271Z,2.00
2023-01-18T14:29:05.385Z,2.02
2023-01-18T14:32:13.654Z,2.04
2023-01-18T14:35:25.941Z,2.09
2023-01-18T14:38:31.258Z,2.08
2023-01-18T14:41:34.543Z,2.08
2023-01-18T14:44:57.784Z,2.15
2023-01-18T14:48:09.463Z,2.18
2023-01-18T14:51:18.341Z,2.18
2023-01-18T14:54:25.817Z,2.18
2023-01-18T14:57:28.968Z,2.21
2023-01-18T15:00:32.419Z,2.17
2023-01-18T15:03:35.649Z,2.14
2023-01-18T15:06:42.410Z,2.18
2023-01-18T15:09:47.788Z,2.23
2023-01-18T15:12:57.773Z,2.22
2023-01-18T15:16:02.185Z,2.22
2023-01-18T15:19:05.843Z,2.22
2023-01-18T15:22:12.923Z,2.23
2023-01-18T15:25:24.636Z,2.34
2023-01-18T15:28:33.894Z,2.37
2023-01-18T15:31:46.841Z,2.32
2023-01-18T15:34:52.450Z,2.38
2023-01-18T15:37:55.951Z,2.38
2023-01-18T15:41:10.627Z,2.21
2023-01-18T15:44:48.009Z,2.15
2023-01-18T15:47:54.217Z,2.20
2023-01-18T15:50:59.878Z,2.01
2023-01-18T15:54:10.445Z,2.09
2023-01-18T15:57:20.570Z,2.02
2023-01-18T16:00:29.352Z,2.07
2023-01-18T16:03:37.915Z,2.15
2023-01-18T16:06:41.074Z,2.21
2023-01-18T16:09:47.304Z,2.14
2023-01-18T16:12:52.189Z,2.18
2023-01-18T16:16:22.439Z,2.18
2023-01-18T16:19:30.080Z,2.15
2023-01-18T16:22:37.158Z,2.12
2023-01-18T16:25:40.570Z,2.14
2023-01-18T16:28:45.245Z,1.95
2023-01-18T16:31:49.187Z,2.02
2023-01-18T16:34:53.276Z,2.00
2023-01-18T16:38:01.823Z,2.05
2023-01-18T16:41:05.221Z,2.05
2023-01-18T16:44:12.563Z,1.97
2023-01-18T16:47:18.516Z,1.94
2023-01-18T16:50:21.915Z,1.99
2023-01-18T16:53:25.036Z,1.95
2023-01-18T16:56:28.303Z,1.97
2023-01-18T16:59:34.790Z,1.81
2023-01-18T17:02:45.764Z,1.83
2023-01-18T17:05:52.273Z,1.73
2023-01-18T17:09:05.769Z,1.83
2023-01-18T17:12:28.026Z,1.72
2023-01-18T17:16:35.671Z,1.82
2023-01-18T17:19:45.064Z,1.86
2023-01-18T17:22:48.597Z,1.82
2023-01-18T17:25:51.633Z,1.79
2023-01-18T17:28:56.833Z,1.87
2023-01-18T17:32:01.227Z,1.88
2023-01-18T17:35:05.243Z,1.80
2023-01-18T17:38:22.269Z,1.76
2023-01-18T17:41:29.145Z,1.76
2023-01-18T17:44:37.447Z,1.72
2023-01-18T17:47:44.293Z,1.71
2023-01-18T17:50:47.546Z,1.75
2023-01-18T17:53:50.597Z,1.74
2023-01-18T17:56:54.076Z,1.73
2023-01-18T17:59:57.161Z,1.73
2023-01-18T18:03:02.315Z,1.71
2023-01-18T18:06:06.421Z,1.69
2023-01-18T18:09:11.572Z,1.69
2023-01-18T18:12:14.609Z,1.68
2023-01-18T18:15:17.994Z,1.66
2023-01-18T18:18:23.590Z,1.62
2023-01-18T18:21:29.921Z,1.57
2023-01-18T18:24:32.972Z,1.51
2023-01-18T18:27:45.372Z,1.48
2023-01-18T18:30:49.186Z,1.40
2023-01-18T18:33:53.610Z,1.37
2023-01-18T18:36:58.902Z,1.36
2023-01-18T18:40:02.638Z,1.39
2023-01-18T18:43:06.154Z,1.34
2023-01-18T18:46:09.463Z,1.23
2023-01-18T18:49:14.397Z,1.10
2023-01-18T18:52:17.884Z,1.13
2023-01-18T18:55:21.023Z,1.15
2023-01-18T18:58:24.174Z,1.13
2023-01-18T19:01:30.138Z,1.11
2023-01-18T19:04:34.644Z,1.09
2023-01-18T19:07:38.585Z,1.05
2023-01-18T19:10:41.851Z,1.02
2023-01-18T19:14:03.257Z,0.98
2023-01-18T19:22:20.951Z,0.97
2023-01-18T19:26:27.204Z,0.89
2023-01-18T19:34:33.169Z,0.86
2023-01-18T19:37:57.824Z,0.83
2023-01-18T19:41:12.815Z,0.76
2023-01-18T19:44:22.715Z,0.71
2023-01-18T19:47:26.087Z,0.72
2023-01-18T19:50:32.306Z,0.59
2023-01-18T19:53:36.959Z,0.52
2023-01-18T19:56:40.084Z,0.56
2023-01-18T19:59:43.353Z,0.55
2023-01-18T20:02:50.391Z,0.60
2023-01-18T20:05:53.737Z,0.61
2023-01-18T20:08:58.927Z,0.55
2023-01-18T20:12:03.249Z,0.55
2023-01-18T20:15:07.712Z,0.52
2023-01-18T20:18:13.899Z,0.44
2023-01-18T20:21:19.173Z,0.30
2023-01-18T20:24:23.669Z,0.24
2023-01-18T20:27:26.763Z,0.09
2023-01-18T20:30:35.618Z,-0.04
2023-01-18T20:33:39.373Z,-0.11
2023-01-18T20:36:42.644Z,-0.14
2023-01-18T20:39:47.266Z,-0.25
2023-01-18T20:42:50.340Z,-0.28
2023-01-18T20:46:01.920Z,-0.29
2023-01-18T20:49:05.859Z,-0.37
2023-01-18T20:52:09.588Z,-0.40
2023-01-18T20:55:17.574Z,-0.54
2023-01-18T20:58:20.653Z,-0.63
2023-01-18T21:01:24.172Z,-0.61
2023-01-18T21:04:27.280Z,-0.60
2023-01-18T21:07:30.438Z,-0.64
2023-01-18T21:10:39.334Z,-0.73
2023-01-18T21:13:42.460Z,-0.76
2023-01-18T21:16:45.785Z,-0.74
2023-01-18T21:19:53.437Z,-0.78
2023-01-18T21:22:57.510Z,-0.83
2023-01-18T21:26:02.206Z,-0.85
2023-01-18T21:29:05.985Z,-0.89
2023-01-18T21:32:09.050Z,-0.95
2023-01-18T21:35:12.597Z,-0.97
2023-01-18T21:38:16.439Z,-1.00
2023-01-18T21:41:38.657Z,-0.97
2023-01-18T21:44:59.326Z,-1.02
2023-01-18T21:48:07.217Z,-1.06
2023-01-18T21:51:28.432Z,-1.14
2023-01-18T21:54:31.423Z,-1.14
2023-01-18T21:57:39.374Z,-1.19
2023-01-18T22:00:43.472Z,-1.19
2023-01-18T22:04:04.521Z,-1.21
2023-01-18T22:07:07.530Z,-1.23
2023-01-18T22:10:11.723Z,-1.26
2023-01-18T22:13:16.072Z,-1.29
2023-01-18T22:16:19.468Z,-1.33
2023-01-18T22:19:22.661Z,-1.34
2023-01-18T22:22:25.706Z,-1.39
2023-01-18T22:25:28.746Z,-1.38
2023-01-18T22:28:33.618Z,-1.43
2023-01-18T22:31:37.108Z,-1.42
2023-01-18T22:34:46.262Z,-1.45
2023-01-18T22:37:49.493Z,-1.44
2023-01-18T22:41:02.722Z,-1.49
2023-01-18T22:44:07.545Z,-1.46
2023-01-18T22:47:10.633Z,-1.54
2023-01-18T22:50:13.659Z,-1.73
2023-01-18T22:53:16.821Z,-1.64
2023-01-18T22:56:22.933Z,-1.61
2023-01-18T22:59:27.374Z,-1.54
2023-01-18T23:02:30.476Z,-1.46
2023-01-18T23:05:33.560Z,-1.41
2023-01-18T23:08:42.358Z,-1.39
2023-01-18T23:11:48.976Z,-1.42
2023-01-18T23:15:11.324Z,-1.49
2023-01-18T23:18:14.612Z,-1.68
2023-01-18T23:21:17.723Z,-1.69
2023-01-18T23:24:21.729Z,-1.75
2023-01-18T23:27:25.450Z,-1.82
2023-01-18T23:30:30.636Z,-1.84
2023-01-18T23:33:33.792Z,-1.88
2023-01-18T23:36:37.031Z,-1.94
2023-01-18T23:39:57.839Z,-1.99
2023-01-18T23:43:18.350Z,-1.93
2023-01-18T23:46:40.604Z,-1.94
2023-01-18T23:50:01.253Z,-1.95
2023-01-18T23:53:22.406Z,-2.01
2023-01-18T23:56:26.106Z,-2.07
2023-01-18T23:59:29.190Z,-2.11
